MSC Federica — HPQE — position and weather

sailwx.info

Track history (hours):
 
Tides and Currents Weather Stations Pressure Air Temp Water Temp Dewpoint Dewpoint Depression Visibility Wind Speed Wind Dir Waves Ship Positions

MSC Federica

Last reported at 2015-Mar-31 00:33 UTC. Time now 2015-Apr-22 03:52 UTC.
Position N 26°16' W 079°21'.
Warning: this ship's position is 22 days out of date.

Length 294 m; draft 9.9 m.

Type: Ship (hazmat cat B). MMSI: 357363000.

Date/timePositionNaut miles runAvg speedWind from/ knotsBaromVisibWave heightAir tempDewpointWater temp
2015-Mar-31 00:33N 26°16' W 079°21'1716.6
2015-Mar-30 23:33N 26°13' W 079°39'1717.0
2015-Mar-30 22:33N 26°07' W 079°57'9 9.2
2015-Mar-30 21:33N 26°05' W 080°07'1 0.8
2015-Mar-30 20:27N 26°04' W 080°07'0 0.0
2015-Mar-30 19:27N 26°04' W 080°07'0 0.0
2015-Mar-30 18:27N 26°04' W 080°07'0 0.0
2015-Mar-30 17:30N 26°04' W 080°07'0 0.0
2015-Mar-30 16:30N 26°04' W 080°07'0 0.0
2015-Mar-30 15:30N 26°04' W 080°07'0 0.0
2015-Mar-30 14:33N 26°04' W 080°07'0 0.0
2015-Mar-30 13:33N 26°04' W 080°07'51 5.4
2015-Mar-30 04:12N 26°53' W 079°51'1116.3
2015-Mar-30 03:33N 27°04' W 079°52'  
2015-Mar-27 04:13N 39°00' W 074°05'1416.3
2015-Mar-27 03:22N 39°14' W 074°02'1416.6
2015-Mar-27 02:32N 39°27' W 073°58'1616.7
2015-Mar-27 01:33N 39°43' W 073°53'1716.8
2015-Mar-27 00:32N 40°00' W 073°51'1313.1
2015-Mar-26 23:32N 40°13' W 073°50'13 9.7
2015-Mar-26 22:11N 40°26' W 073°49'5 8.4
2015-Mar-26 21:33N 40°29' W 073°55'1211.7
2015-Mar-26 20:33N 40°39' W 074°04'4 3.6
2015-Mar-26 19:33N 40°40' W 074°08'1 0.8
2015-Mar-26 18:32N 40°41' W 074°09'0 0.0
2015-Mar-26 17:26N 40°41' W 074°09'0 0.0
2015-Mar-26 16:32N 40°41' W 074°09'0 0.0
2015-Mar-26 15:32N 40°41' W 074°09'0 0.0
2015-Mar-26 14:32N 40°41' W 074°09'0 0.0
2015-Mar-26 13:32N 40°41' W 074°09'0 0.0
2015-Mar-26 12:26N 40°41' W 074°09'0 0.0
2015-Mar-26 11:32N 40°41' W 074°09'0 0.0
2015-Mar-26 08:26N 40°41' W 074°09'0 0.0
2015-Mar-26 07:32N 40°41' W 074°09'0 0.0
2015-Mar-26 06:32N 40°41' W 074°09'0 0.0
2015-Mar-26 05:32N 40°41' W 074°09'0 0.0
2015-Mar-26 04:29N 40°41' W 074°09'0 0.0
2015-Mar-26 03:26N 40°41' W 074°09'0 0.0
2015-Mar-26 02:32N 40°41' W 074°09'0 0.0
2015-Mar-26 01:32N 40°41' W 074°09'0 0.0
2015-Mar-26 00:32N 40°41' W 074°09'0 0.0
2015-Mar-25 23:29N 40°41' W 074°09'0 0.0
2015-Mar-25 22:26N 40°41' W 074°09'0 0.0
2015-Mar-25 21:26N 40°41' W 074°09'0 0.0
2015-Mar-25 20:32N 40°41' W 074°09'0 0.0
2015-Mar-25 19:26N 40°41' W 074°09'0 0.0
2015-Mar-25 18:26N 40°41' W 074°09'0 0.0
2015-Mar-25 17:14N 40°41' W 074°09'0 0.0
2015-Mar-25 16:26N 40°41' W 074°09'0 0.0
2015-Mar-25 15:32N 40°41' W 074°09'0 0.0
2015-Mar-25 14:32N 40°41' W 074°09'0 0.0
2015-Mar-25 13:32N 40°41' W 074°09'0 0.0
2015-Mar-25 12:32N 40°41' W 074°09'0 0.0
2015-Mar-25 11:26N 40°41' W 074°09'0 0.0
2015-Mar-25 10:32N 40°41' W 074°09'2 2.0
2015-Mar-25 09:33N 40°39' W 074°09'4 4.1
2015-Mar-25 08:33N 40°39' W 074°04'1010.0
2015-Mar-25 07:33N 40°30' W 073°57'9 8.7
2015-Mar-25 06:31N 40°26' W 073°46'1 0.8
2015-Mar-25 05:15N 40°25' W 073°45'1 1.4
2015-Mar-25 04:33N 40°24' W 073°45'8 8.4
2015-Mar-25 03:33N 40°16' W 073°46'1412.0
2015-Mar-25 02:25N 40°02' W 073°44'1416.3
2015-Mar-25 01:33N 39°48' W 073°43'1616.0
2015-Mar-25 00:33N 39°32' W 073°43'69 3.4
2015-Mar-24 04:33N 39°54' W 075°08'0 0.0
2015-Mar-24 03:33N 39°54' W 075°08'0 0.0
2015-Mar-24 02:33N 39°54' W 075°08'0 0.0
2015-Mar-24 01:33N 39°54' W 075°08'0 0.0
2015-Mar-24 00:33N 39°54' W 075°08'0 0.0
2015-Mar-23 23:33N 39°54' W 075°08'0 0.0
2015-Mar-23 22:33N 39°54' W 075°08'0 0.0
2015-Mar-23 21:33N 39°54' W 075°08'3 3.5
2015-Mar-23 20:34N 39°52' W 075°12'1111.0
2015-Mar-23 19:33N 39°48' W 075°25'1312.7
2015-Mar-23 18:34N 39°38' W 075°35'1515.3
2015-Mar-23 17:34N 39°23' W 075°29'1818.0
2015-Mar-23 16:34N 39°09' W 075°14'1717.0
2015-Mar-23 15:34N 38°53' W 075°05'1110.5
2015-Mar-23 14:34N 38°45' W 074°57'2310.5
2015-Mar-23 12:21N 38°26' W 074°39'68417.1
2015-Mar-21 20:23N 27°40' W 079°05'1618.9
2015-Mar-21 19:33N 27°26' W 079°13'1818.7
2015-Mar-21 18:33N 27°08' W 079°18'1918.9
2015-Mar-21 17:33N 26°50' W 079°12'2118.1
2015-Mar-21 16:24N 26°33' W 078°58'1012.0
2015-Mar-21 15:33N 26°31' W 078°47'0 0.1
2015-Mar-21 10:26N 26°31' W 078°46'0 0.0
2015-Mar-21 07:26N 26°31' W 078°46'  
Track history (hours):
 
Tides and Currents Weather Stations Pressure Air Temp Water Temp Dewpoint Dewpoint Depression Visibility Wind Speed Wind Dir Waves Ship Positions

MSC Federica

Last reported at 2015-Mar-31 00:33 UTC. Time now 2015-Apr-22 03:52 UTC.
Position N 26°16' W 079°21'.
Warning: this ship's position is 22 days out of date.

Length 294 m; draft 9.9 m.

Type: Ship (hazmat cat B). MMSI: 357363000.

Date/timePositionNaut miles runAvg speedWind from/ knotsBaromVisibWave heightAir tempDewpointWater temp
2015-Mar-31 00:33N 26°16' W 079°21'1716.6
2015-Mar-30 23:33N 26°13' W 079°39'1717.0
2015-Mar-30 22:33N 26°07' W 079°57'9 9.2
2015-Mar-30 21:33N 26°05' W 080°07'1 0.8
2015-Mar-30 20:27N 26°04' W 080°07'0 0.0
2015-Mar-30 19:27N 26°04' W 080°07'0 0.0
2015-Mar-30 18:27N 26°04' W 080°07'0 0.0
2015-Mar-30 17:30N 26°04' W 080°07'0 0.0
2015-Mar-30 16:30N 26°04' W 080°07'0 0.0
2015-Mar-30 15:30N 26°04' W 080°07'0 0.0
2015-Mar-30 14:33N 26°04' W 080°07'0 0.0
2015-Mar-30 13:33N 26°04' W 080°07'51 5.4
2015-Mar-30 04:12N 26°53' W 079°51'1116.3
2015-Mar-30 03:33N 27°04' W 079°52'  
2015-Mar-27 04:13N 39°00' W 074°05'1416.3
2015-Mar-27 03:22N 39°14' W 074°02'1416.6
2015-Mar-27 02:32N 39°27' W 073°58'1616.7
2015-Mar-27 01:33N 39°43' W 073°53'1716.8
2015-Mar-27 00:32N 40°00' W 073°51'1313.1
2015-Mar-26 23:32N 40°13' W 073°50'13 9.7
2015-Mar-26 22:11N 40°26' W 073°49'5 8.4
2015-Mar-26 21:33N 40°29' W 073°55'1211.7
2015-Mar-26 20:33N 40°39' W 074°04'4 3.6
2015-Mar-26 19:33N 40°40' W 074°08'1 0.8
2015-Mar-26 18:32N 40°41' W 074°09'0 0.0
2015-Mar-26 17:26N 40°41' W 074°09'0 0.0
2015-Mar-26 16:32N 40°41' W 074°09'0 0.0
2015-Mar-26 15:32N 40°41' W 074°09'0 0.0
2015-Mar-26 14:32N 40°41' W 074°09'0 0.0
2015-Mar-26 13:32N 40°41' W 074°09'0 0.0
2015-Mar-26 12:26N 40°41' W 074°09'0 0.0
2015-Mar-26 11:32N 40°41' W 074°09'0 0.0
2015-Mar-26 08:26N 40°41' W 074°09'0 0.0
2015-Mar-26 07:32N 40°41' W 074°09'0 0.0
2015-Mar-26 06:32N 40°41' W 074°09'0 0.0
2015-Mar-26 05:32N 40°41' W 074°09'0 0.0
2015-Mar-26 04:29N 40°41' W 074°09'0 0.0
2015-Mar-26 03:26N 40°41' W 074°09'0 0.0
2015-Mar-26 02:32N 40°41' W 074°09'0 0.0
2015-Mar-26 01:32N 40°41' W 074°09'0 0.0
2015-Mar-26 00:32N 40°41' W 074°09'0 0.0
2015-Mar-25 23:29N 40°41' W 074°09'0 0.0
2015-Mar-25 22:26N 40°41' W 074°09'0 0.0
2015-Mar-25 21:26N 40°41' W 074°09'0 0.0
2015-Mar-25 20:32N 40°41' W 074°09'0 0.0
2015-Mar-25 19:26N 40°41' W 074°09'0 0.0
2015-Mar-25 18:26N 40°41' W 074°09'0 0.0
2015-Mar-25 17:14N 40°41' W 074°09'0 0.0
2015-Mar-25 16:26N 40°41' W 074°09'0 0.0
2015-Mar-25 15:32N 40°41' W 074°09'0 0.0
2015-Mar-25 14:32N 40°41' W 074°09'0 0.0
2015-Mar-25 13:32N 40°41' W 074°09'0 0.0
2015-Mar-25 12:32N 40°41' W 074°09'0 0.0
2015-Mar-25 11:26N 40°41' W 074°09'0 0.0
2015-Mar-25 10:32N 40°41' W 074°09'2 2.0
2015-Mar-25 09:33N 40°39' W 074°09'4 4.1
2015-Mar-25 08:33N 40°39' W 074°04'1010.0
2015-Mar-25 07:33N 40°30' W 073°57'9 8.7
2015-Mar-25 06:31N 40°26' W 073°46'1 0.8
2015-Mar-25 05:15N 40°25' W 073°45'1 1.4
2015-Mar-25 04:33N 40°24' W 073°45'8 8.4
2015-Mar-25 03:33N 40°16' W 073°46'1412.0
2015-Mar-25 02:25N 40°02' W 073°44'1416.3
2015-Mar-25 01:33N 39°48' W 073°43'1616.0
2015-Mar-25 00:33N 39°32' W 073°43'69 3.4
2015-Mar-24 04:33N 39°54' W 075°08'0 0.0
2015-Mar-24 03:33N 39°54' W 075°08'0 0.0
2015-Mar-24 02:33N 39°54' W 075°08'0 0.0
2015-Mar-24 01:33N 39°54' W 075°08'0 0.0
2015-Mar-24 00:33N 39°54' W 075°08'0 0.0
2015-Mar-23 23:33N 39°54' W 075°08'0 0.0
2015-Mar-23 22:33N 39°54' W 075°08'0 0.0
2015-Mar-23 21:33N 39°54' W 075°08'3 3.5
2015-Mar-23 20:34N 39°52' W 075°12'1111.0
2015-Mar-23 19:33N 39°48' W 075°25'1312.7
2015-Mar-23 18:34N 39°38' W 075°35'1515.3
2015-Mar-23 17:34N 39°23' W 075°29'1818.0
2015-Mar-23 16:34N 39°09' W 075°14'1717.0
2015-Mar-23 15:34N 38°53' W 075°05'1110.5
2015-Mar-23 14:34N 38°45' W 074°57'2310.5
2015-Mar-23 12:21N 38°26' W 074°39'68417.1
2015-Mar-21 20:23N 27°40' W 079°05'1618.9
2015-Mar-21 19:33N 27°26' W 079°13'1818.7
2015-Mar-21 18:33N 27°08' W 079°18'1918.9
2015-Mar-21 17:33N 26°50' W 079°12'2118.1
2015-Mar-21 16:24N 26°33' W 078°58'1012.0
2015-Mar-21 15:33N 26°31' W 078°47'0 0.1
2015-Mar-21 10:26N 26°31' W 078°46'0 0.0
2015-Mar-21 07:26N 26°31' W 078°46'  

Dump ship's entire track history